WetterOnline ( https://www.wetteronline.de )

Wetter aktuell Bremervörde

Aktuelles Wetter: Bremervörde (5m)

6-stündlich | Neueste Meldungen
Ortszeit Temperatur Wetter
Di, 04.10. 8:00 9.9° C wolkig
Di, 04.10. 2:00 9.6° C bedeckt
Mo, 03.10. 20:00 12.3° C leicht bewölkt
Mo, 03.10. 14:00 16.9° C bewölkt
Mo, 03.10. 8:00 9.4° C wolkenlos
Mo, 03.10. 2:00 10.5° C leicht bewölkt
So, 02.10. 20:00 13.2° C wolkig
So, 02.10. 14:00 15.5° C leicht bewölkt
Ortszeit Temperatur Wetter
Di, 04.10. 12:00 15.0° C bedeckt
Di, 04.10. 11:50 15.0° C bedeckt
Di, 04.10. 11:40 15.0° C bedeckt
Di, 04.10. 11:30 14.4° C bedeckt
Di, 04.10. 11:20 14.4° C bedeckt
Di, 04.10. 11:10 14.0° C bedeckt
Di, 04.10. 11:00 14.0° C wolkig
Di, 04.10. 10:30 13.1° C wolkig
Di, 04.10. 10:00 12.2° C wolkig
Di, 04.10. 9:30 11.4° C wolkig
Di, 04.10. 9:00 10.8° C wolkig
Ortszeit Relative Feuchte Sichtweite
Di, 04.10. 8:00 97% 15 km
Di, 04.10. 2:00 98% 25 km
Mo, 03.10. 20:00 89% 35 km
Mo, 03.10. 14:00 71% 50 km
Mo, 03.10. 8:00 99% 21 km
Mo, 03.10. 2:00 95% 27 km
So, 02.10. 20:00 81% 27 km
So, 02.10. 14:00 83% 30 km
Ortszeit Relative Feuchte Sichtweite
Di, 04.10. 12:00 76% 28 km
Di, 04.10. 11:50 76% -
Di, 04.10. 11:40 78% -
Di, 04.10. 11:30 76% 30 km
Di, 04.10. 11:20 76% -
Di, 04.10. 11:10 79% -
Di, 04.10. 11:00 80% 28 km
Di, 04.10. 10:30 83% 19 km
Di, 04.10. 10:00 88% 21 km
Di, 04.10. 9:30 91% 17 km
Di, 04.10. 9:00 93% 17 km
Ortszeit Niederschlagsmenge Niederschlagsart
Di, 04.10. 8:00 0.0 l/m2 in 12 Std. -
Di, 04.10. 2:00 0.0 l/m2 in 6 Std. -
Mo, 03.10. 20:00 0.1 l/m2 in 12 Std. Regen
Mo, 03.10. 14:00 0.1 l/m2 in 6 Std. Regen
Mo, 03.10. 8:00 0.3 l/m2 in 12 Std. Regen
Mo, 03.10. 2:00 0.3 l/m2 in 6 Std. Regen
So, 02.10. 20:00 3 l/m2 in 12 Std. Regen
So, 02.10. 14:00 3 l/m2 in 6 Std. Regen
Ortszeit Niederschlagsmenge Niederschlagsart
Di, 04.10. 12:00 0.0 l/m2 in 1 Std. -
Di, 04.10. 11:50 keine Meldung -
Di, 04.10. 11:40 keine Meldung -
Di, 04.10. 11:30 0.0 l/m2 in 1 Std. -
Di, 04.10. 11:20 keine Meldung -
Di, 04.10. 11:10 keine Meldung -
Di, 04.10. 11:00 0.0 l/m2 in 1 Std. -
Di, 04.10. 10:30 0.0 l/m2 in 1 Std. -
Di, 04.10. 10:00 0.0 l/m2 in 1 Std. -
Di, 04.10. 9:30 0.0 l/m2 in 1 Std. -
Di, 04.10. 9:00 0.0 l/m2 in 1 Std. -
Ortszeit Stärke Spitze Richtung
km/h Bft. km/h Grad Sektor
Di, 04.10. 8:00 9 2 13 210° SW
Di, 04.10. 2:00 7 2 14 220° SW
Mo, 03.10. 20:00 7 2 40 270° W
Mo, 03.10. 14:00 19 3 37 300° NW
Mo, 03.10. 8:00 7 2 22 250° W
Mo, 03.10. 2:00 9 2 28 250° W
So, 02.10. 20:00 11 2 44 280° W
So, 02.10. 14:00 13 3 39 280° W
Ortszeit Stärke Spitze Richtung
km/h Bft. km/h Grad Sektor
Di, 04.10. 12:00 13 3 26 210° SW
Di, 04.10. 11:50 13 3 - 210° SW
Di, 04.10. 11:40 17 3 - 210° SW
Di, 04.10. 11:30 13 3 20 200° S
Di, 04.10. 11:20 13 3 - 200° S
Di, 04.10. 11:10 11 2 - 210° SW
Di, 04.10. 11:00 13 3 22 210° SW
Di, 04.10. 10:30 15 3 20 210° SW
Di, 04.10. 10:00 15 3 22 210° SW
Di, 04.10. 9:30 11 2 18 220° SW
Di, 04.10. 9:00 7 2 14 210° SW
Ortszeit Untergrenze Bedeckung Gattung
total tief tief mittel hoch
Di, 04.10. 8:00 1290 m 8/8 2/8 - - -
Di, 04.10. 2:00 4200 m 8/8 8/8 - - -
Mo, 03.10. 20:00 7200 m 5/8 0/8 - - -
Mo, 03.10. 14:00 690 m 7/8 7/8 - - -
Mo, 03.10. 8:00 - 0/8 0/8 - - -
Mo, 03.10. 2:00 1440 m 2/8 2/8 - - -
So, 02.10. 20:00 810 m 5/8 5/8 - - -
So, 02.10. 14:00 2100 m 3/8 3/8 - - -
Ortszeit Bedeckungsgrad in Achtel und Wolkenuntergrenze
Di, 04.10. 12:00 6(5100m) 8(6000m)
Di, 04.10. 11:50 6(5100m) 8(6000m)
Di, 04.10. 11:40 8
Di, 04.10. 11:30 8(5100m) 8(6300m)
Di, 04.10. 11:20 8(5100m) 8(6300m)
Di, 04.10. 11:10 8
Di, 04.10. 11:00 8(5100m) 8(6000m)
Di, 04.10. 10:30 2(3900m) 5(5100m) 6(10500m)
Di, 04.10. 10:00 4(3600m) 5(12000m)
Di, 04.10. 9:30 4(3600m) 7(9000m)
Di, 04.10. 9:00 1(1320m) 7(9000m)
Ortszeit Luftdruck NN (hPa) Tendenz (hPa in 3 Std.)
Di, 04.10. 8:00 1021 - 0,6
Di, 04.10. 2:00 1023 - 0,8
Mo, 03.10. 20:00 1024 - 0,3
Mo, 03.10. 14:00 1025 - 0,1
Mo, 03.10. 8:00 1024 + 0,8
Mo, 03.10. 2:00 1021 + 1,5
So, 02.10. 20:00 1018 + 2,4
So, 02.10. 14:00 1014 + 1,1
Ortszeit Luftdruck NN (hPa) Tendenz (hPa in 3 Std.)
Di, 04.10. 12:00 1021 - 0,3
Di, 04.10. 11:50 1021 keine Meldung
Di, 04.10. 11:40 1021 keine Meldung
Di, 04.10. 11:30 1021 - 0,2
Di, 04.10. 11:20 1021 keine Meldung
Di, 04.10. 11:10 1021 keine Meldung
Di, 04.10. 11:00 1021 - 0,1
Di, 04.10. 10:30 1021 - 0,2
Di, 04.10. 10:00 1021 - 0,2
Di, 04.10. 9:30 1021 - 0,2
Di, 04.10. 9:00 1021 - 0,6
Ortszeit Schneehöhe (cm)
Di, 04.10. 8:00 0
Di, 04.10. 2:00 0
Mo, 03.10. 20:00 0
Mo, 03.10. 14:00 0
Mo, 03.10. 8:00 0
Mo, 03.10. 2:00 0
So, 02.10. 20:00 0
So, 02.10. 14:00 0
Ortszeit Schneehöhe (cm)
Di, 04.10. 12:00 0
Di, 04.10. 11:50 0
Di, 04.10. 11:40 0
Di, 04.10. 11:30 0
Di, 04.10. 11:20 0
Di, 04.10. 11:10 0
Di, 04.10. 11:00 0
Di, 04.10. 10:30 0
Di, 04.10. 10:00 0
Di, 04.10. 9:30 0
Di, 04.10. 9:00 0
Link zu dieser Seite / Seite empfehlen

Das Wetter in ...